Newcastle-under-Lyme, United Kingdom
Current Conditions -  °F | °C
As of 9:50 AM on Thursday 18 Dec 2014 (Local Time) from EGOS Reporting Station
Drizzle Drizzle  
Wind Chill: 55°   Ceiling: 1500
Heat Index: 55°   Visibility: 6mi
Dew Point: 50°   Wind: 24mph
Humidity: 82%   Direction: 230°SW
Pressure: 29.68"   Gusts: NA
Location:  52.99°N, 2.33°W
Report Text: EGOS 180950Z 23021KT 9999 -DZ FEW012 BKN015 13/10 Q1005 WHT TEMPO -RADZ SCT012 GRN
Loading
Personal Weather Stations






























Interactive Weather Map New forecast layout! Learn more

10-Day Weather Forecast

Advertisements
Track Severe Weather on mobile